Time;durP1;ratioP1;P1;durP2;ratioP2;P2;SDS_P1;SDS_P2;PMS_P1;PMS_P2;Temp;Humidity;BMP_temperature;BMP_pressure;BME280_temperature;BME280_humidity;BME280_pressure;Samples;Min_cycle;Max_cycle;Signal;HPM_P1;HPM_P2
2022/08/23 00:01:46;;;;;;;7.03;5.10;;;18.10;99.60;;;;;;5057558;28;20453;-82
2022/08/23 00:04:17;;;;;;;5.70;5.30;;;18.00;99.80;;;;;;5057391;28;20983;-82
2022/08/23 00:06:46;;;;;;;6.10;5.63;;;18.00;99.90;;;;;;5059709;28;20798;-81
2022/08/23 00:09:13;;;;;;;5.70;5.30;;;18.00;99.90;;;;;;5060448;28;20482;-81
2022/08/23 00:11:44;;;;;;;5.93;5.43;;;17.90;99.90;;;;;;5059948;28;20459;-80
2022/08/23 00:14:14;;;;;;;5.80;5.50;;;17.90;99.90;;;;;;5060758;28;20451;-81
2022/08/23 00:16:41;;;;;;;6.07;5.40;;;17.90;99.90;;;;;;5060643;28;20459;-81
2022/08/23 00:19:09;;;;;;;6.23;5.70;;;17.80;99.90;;;;;;5060543;28;20861;-81
2022/08/23 00:21:37;;;;;;;6.10;5.60;;;17.80;99.90;;;;;;5061250;28;20452;-81
2022/08/23 00:24:06;;;;;;;5.73;5.13;;;17.70;99.90;;;;;;5060443;28;20953;-81
2022/08/23 00:29:29;;;;;;;6.00;5.60;;;17.70;99.90;;;;;;5095885;28;20581;-82
2022/08/23 00:31:57;;;;;;;6.30;5.80;;;17.60;99.90;;;;;;5095098;28;20446;-82
2022/08/23 00:34:23;;;;;;;6.83;6.23;;;17.60;99.90;;;;;;5094891;28;20844;-82
2022/08/23 00:36:51;;;;;;;6.37;5.97;;;17.50;99.90;;;;;;5095777;28;20456;-82
2022/08/23 00:39:18;;;;;;;6.80;5.13;;;17.50;99.90;;;;;;5095672;28;20469;-83
2022/08/23 00:41:47;;;;;;;6.23;5.73;;;17.50;99.90;;;;;;5095214;28;20447;-82
2022/08/23 00:49:55;;;;;;;6.50;5.97;;;17.40;99.90;;;;;;5090622;28;20464;-83
2022/08/23 00:52:28;;;;;;;6.33;5.63;;;17.40;99.90;;;;;;5091181;28;20445;-83
2022/08/23 00:54:56;;;;;;;5.97;5.57;;;17.40;99.90;;;;;;5091248;28;20464;-83
2022/08/23 00:57:24;;;;;;;6.90;6.33;;;17.30;99.90;;;;;;5090891;28;20472;-83
2022/08/23 00:59:50;;;;;;;5.67;5.23;;;17.30;99.90;;;;;;5090139;28;20477;-83
2022/08/23 01:02:19;;;;;;;5.17;4.87;;;17.30;99.90;;;;;;5096155;28;20452;-83
2022/08/23 01:04:55;;;;;;;5.70;5.30;;;17.30;99.90;;;;;;5097339;28;20528;-83
2022/08/23 01:07:35;;;;;;;6.80;6.10;;;17.20;99.90;;;;;;5097652;28;20447;-83
2022/08/23 01:10:08;;;;;;;6.80;6.20;;;17.20;99.90;;;;;;5096388;28;20825;-83
2022/08/23 01:12:41;;;;;;;6.07;5.67;;;17.20;99.90;;;;;;5096196;28;20473;-83
2022/08/23 01:15:15;;;;;;;5.87;5.37;;;17.20;99.90;;;;;;5091366;28;20448;-82
2022/08/23 01:17:47;;;;;;;5.60;5.20;;;17.20;99.90;;;;;;5090163;28;20451;-82
2022/08/23 01:20:18;;;;;;;6.27;5.77;;;17.10;99.90;;;;;;5090416;28;20452;-82
2022/08/23 01:22:52;;;;;;;5.73;5.33;;;17.10;99.90;;;;;;5090432;28;21027;-82
2022/08/23 01:25:22;;;;;;;6.10;5.60;;;17.10;99.90;;;;;;5090646;28;20457;-82
2022/08/23 01:27:49;;;;;;;6.50;6.00;;;17.00;99.90;;;;;;5090160;28;20496;-83
2022/08/23 01:30:19;;;;;;;6.70;6.20;;;17.00;99.90;;;;;;5090491;28;20445;-83
2022/08/23 01:32:54;;;;;;;7.40;6.80;;;17.00;99.90;;;;;;5090775;28;20531;-82
2022/08/23 01:35:24;;;;;;;6.03;5.57;;;17.00;99.90;;;;;;5090528;28;20514;-83
2022/08/23 01:37:51;;;;;;;5.47;5.03;;;17.00;99.90;;;;;;5089534;28;20448;-83
2022/08/23 01:40:18;;;;;;;6.10;5.70;;;17.00;99.90;;;;;;5079191;28;20449;-82
2022/08/23 01:42:48;;;;;;;5.83;5.43;;;16.90;99.90;;;;;;5076609;28;20460;-82
2022/08/23 01:45:15;;;;;;;6.20;5.70;;;16.90;99.90;;;;;;5076695;28;20866;-82
2022/08/23 01:47:42;;;;;;;5.67;5.17;;;16.90;99.90;;;;;;5077089;28;20998;-82
2022/08/23 01:50:11;;;;;;;5.80;5.33;;;16.90;99.90;;;;;;5078689;28;20453;-82
2022/08/23 01:52:39;;;;;;;7.57;5.40;;;16.90;99.90;;;;;;5078466;28;20453;-82
2022/08/23 01:55:07;;;;;;;6.07;5.57;;;16.90;99.90;;;;;;5078581;28;20449;-82
2022/08/23 01:57:35;;;;;;;6.03;5.53;;;16.80;99.90;;;;;;5077994;28;20842;-82
2022/08/23 02:00:06;;;;;;;6.33;5.77;;;16.90;99.90;;;;;;5078378;28;20832;-82
2022/08/23 02:02:33;;;;;;;6.10;5.60;;;16.80;99.90;;;;;;5078232;28;20824;-82
2022/08/23 02:05:00;;;;;;;5.07;4.77;;;16.80;99.90;;;;;;5077027;28;20491;-83
2022/08/23 02:07:27;;;;;;;5.33;4.93;;;16.80;99.90;;;;;;5075974;28;20475;-82
2022/08/23 02:09:54;;;;;;;5.90;5.40;;;16.80;99.90;;;;;;5076058;28;20474;-82
2022/08/23 02:12:21;;;;;;;6.27;5.80;;;16.80;99.90;;;;;;5077039;28;20544;-82
2022/08/23 02:14:48;;;;;;;5.53;5.13;;;16.80;99.90;;;;;;5082518;28;20476;-82
2022/08/23 02:17:17;;;;;;;5.53;5.07;;;16.80;99.90;;;;;;5081778;28;20818;-81
2022/08/23 02:19:44;;;;;;;6.93;5.40;;;16.80;99.90;;;;;;5077726;28;20955;-82
2022/08/23 02:22:12;;;;;;;5.63;5.13;;;16.80;99.90;;;;;;5077862;28;20453;-82
2022/08/23 02:24:41;;;;;;;5.83;5.33;;;16.80;99.90;;;;;;5077872;28;20867;-82
2022/08/23 02:27:08;;;;;;;5.27;4.97;;;16.70;99.90;;;;;;5077051;28;20508;-82
2022/08/23 02:29:35;;;;;;;5.33;4.93;;;16.70;99.90;;;;;;5075847;28;20485;-82
2022/08/23 02:32:03;;;;;;;5.53;5.13;;;16.70;99.90;;;;;;5076119;28;20457;-81
2022/08/23 02:34:32;;;;;;;5.63;5.23;;;16.70;99.90;;;;;;5080804;28;20449;-81
2022/08/23 02:36:59;;;;;;;5.43;5.00;;;16.60;99.90;;;;;;5079692;28;20461;-81
2022/08/23 02:39:26;;;;;;;5.90;5.40;;;16.60;99.90;;;;;;5079297;28;20471;-81
2022/08/23 02:41:53;;;;;;;5.90;5.37;;;16.60;99.90;;;;;;5080069;28;20445;-81
2022/08/23 02:44:20;;;;;;;5.63;5.13;;;16.60;99.90;;;;;;5079308;28;20828;-82
2022/08/23 02:46:48;;;;;;;5.77;5.37;;;16.60;99.90;;;;;;5075048;28;20462;-83
2022/08/23 02:49:15;;;;;;;6.00;5.70;;;16.60;99.90;;;;;;5074764;28;20501;-82
2022/08/23 02:51:43;;;;;;;5.43;4.70;;;16.60;99.90;;;;;;5074501;28;20457;-82
2022/08/23 02:54:10;;;;;;;5.77;5.40;;;16.50;99.90;;;;;;5074737;28;20450;-82
2022/08/23 02:56:37;;;;;;;6.10;5.60;;;16.50;99.90;;;;;;5075362;28;20946;-82
2022/08/23 02:59:05;;;;;;;6.37;5.87;;;16.50;99.90;;;;;;5077183;28;20469;-82
2022/08/23 03:01:35;;;;;;;5.57;5.13;;;16.50;99.90;;;;;;5077250;28;20473;-82
2022/08/23 03:04:03;;;;;;;9.50;5.97;;;16.50;99.90;;;;;;5077033;28;20452;-82
2022/08/23 03:06:30;;;;;;;5.63;5.33;;;16.50;99.90;;;;;;5076799;28;20446;-82
2022/08/23 03:08:59;;;;;;;5.80;5.30;;;16.40;99.90;;;;;;5076957;28;20486;-82
2022/08/23 03:11:26;;;;;;;6.13;5.17;;;16.40;99.90;;;;;;5077055;28;20450;-83
2022/08/23 03:13:55;;;;;;;6.40;5.90;;;16.40;99.90;;;;;;5077633;28;20493;-82
2022/08/23 03:16:22;;;;;;;6.40;5.80;;;16.40;99.90;;;;;;5079438;28;20484;-83
2022/08/23 03:18:49;;;;;;;5.30;5.00;;;16.40;99.90;;;;;;5079240;28;21020;-83
2022/08/23 03:21:17;;;;;;;6.37;5.90;;;16.40;99.90;;;;;;5079380;28;20452;-83
2022/08/23 03:23:44;;;;;;;5.70;5.30;;;16.40;99.90;;;;;;5079409;28;20444;-83
2022/08/23 03:26:13;;;;;;;5.77;5.37;;;16.30;99.90;;;;;;5079321;28;20451;-82
2022/08/23 03:28:42;;;;;;;7.00;6.10;;;16.30;99.90;;;;;;5078841;28;20489;-81
2022/08/23 03:31:10;;;;;;;5.67;5.17;;;16.30;99.90;;;;;;5078261;28;20457;-81
2022/08/23 03:33:37;;;;;;;5.30;4.80;;;16.30;99.90;;;;;;5078674;28;20456;-81
2022/08/23 03:36:07;;;;;;;6.13;5.73;;;16.30;99.90;;;;;;5078911;28;20449;-81
2022/08/23 03:38:35;;;;;;;6.80;6.17;;;16.20;99.90;;;;;;5079508;28;20469;-82
2022/08/23 03:41:01;;;;;;;5.93;5.47;;;16.20;99.90;;;;;;5079413;28;20468;-83
2022/08/23 03:43:30;;;;;;;7.00;6.53;;;16.20;99.90;;;;;;5079911;28;20457;-82
2022/08/23 03:45:57;;;;;;;6.13;5.73;;;16.30;99.90;;;;;;5079704;28;20456;-83
2022/08/23 03:48:24;;;;;;;7.07;6.37;;;16.20;99.90;;;;;;5078905;28;20489;-82
2022/08/23 03:50:51;;;;;;;8.03;7.37;;;16.20;99.90;;;;;;5078979;28;20477;-83
2022/08/23 03:53:18;;;;;;;5.80;5.40;;;16.20;99.90;;;;;;5079119;28;20448;-83
2022/08/23 03:55:46;;;;;;;6.37;5.97;;;16.10;99.90;;;;;;5074599;28;20458;-83
2022/08/23 03:58:13;;;;;;;5.30;4.90;;;16.10;99.90;;;;;;5073877;28;20477;-82
2022/08/23 04:00:41;;;;;;;7.03;6.40;;;16.10;99.90;;;;;;5073851;28;20454;-82
2022/08/23 04:03:08;;;;;;;5.87;5.37;;;16.00;99.90;;;;;;5074102;28;20469;-82
2022/08/23 04:05:35;;;;;;;6.70;6.20;;;16.00;99.90;;;;;;5074409;28;20965;-82
2022/08/23 04:08:07;;;;;;;6.00;5.33;;;16.00;99.90;;;;;;5073629;28;20531;-82
2022/08/23 04:10:34;;;;;;;5.30;5.00;;;16.00;99.90;;;;;;5074054;28;20445;-82
2022/08/23 04:13:01;;;;;;;7.10;5.43;;;16.00;99.90;;;;;;5074050;28;20814;-82
2022/08/23 04:15:28;;;;;;;6.10;5.60;;;16.00;99.90;;;;;;5073586;28;20468;-83
2022/08/23 04:17:58;;;;;;;5.70;5.30;;;16.00;99.90;;;;;;5073834;28;20806;-83
2022/08/23 04:20:24;;;;;;;8.57;5.60;;;16.00;99.90;;;;;;5074185;28;20469;-83
2022/08/23 04:22:52;;;;;;;5.33;5.03;;;16.00;99.90;;;;;;5074206;28;20449;-82
2022/08/23 04:25:18;;;;;;;5.87;5.43;;;16.00;99.90;;;;;;5073475;28;20477;-83
2022/08/23 04:27:45;;;;;;;6.40;5.90;;;16.00;99.90;;;;;;5073408;28;20465;-82
2022/08/23 04:30:13;;;;;;;5.53;5.13;;;16.00;99.90;;;;;;5073912;28;20496;-82
2022/08/23 04:32:40;;;;;;;6.00;5.50;;;16.00;99.90;;;;;;5077721;28;20454;-81
2022/08/23 04:35:09;;;;;;;6.03;5.60;;;16.00;99.90;;;;;;5077978;28;20456;-82
2022/08/23 04:37:35;;;;;;;6.03;5.63;;;16.00;99.90;;;;;;5074086;28;20476;-83
2022/08/23 04:42:58;;;;;;;5.80;5.30;;;16.00;99.90;;;;;;5026229;28;20443;-80
2022/08/23 04:45:26;;;;;;;5.73;5.23;;;16.00;99.90;;;;;;5064194;28;20441;-82
2022/08/23 04:47:53;;;;;;;6.67;6.07;;;16.00;99.90;;;;;;5079642;28;20472;-83
2022/08/23 04:50:21;;;;;;;5.47;4.97;;;16.00;99.90;;;;;;5078884;28;20489;-82
2022/08/23 04:52:48;;;;;;;6.53;6.03;;;16.00;99.90;;;;;;5078183;28;20451;-81
2022/08/23 04:55:15;;;;;;;5.90;5.40;;;16.00;99.90;;;;;;5078381;28;20444;-82
2022/08/23 04:57:42;;;;;;;6.00;5.60;;;16.00;99.90;;;;;;5078733;28;20448;-83
2022/08/23 05:00:11;;;;;;;7.40;6.83;;;16.00;99.90;;;;;;5085204;28;20433;-81
2022/08/23 05:02:39;;;;;;;6.20;5.70;;;16.00;99.90;;;;;;5090093;28;20450;-79
2022/08/23 05:05:08;;;;;;;6.60;5.90;;;16.00;99.90;;;;;;5092820;28;20454;-79
2022/08/23 05:07:37;;;;;;;5.70;5.30;;;16.10;99.90;;;;;;5090466;28;20446;-81
2022/08/23 05:10:04;;;;;;;6.60;6.00;;;16.10;99.90;;;;;;5089049;28;20489;-82
2022/08/23 05:12:31;;;;;;;6.90;6.37;;;16.20;99.90;;;;;;5092359;28;20440;-79
2022/08/23 05:14:58;;;;;;;6.13;5.63;;;16.20;99.90;;;;;;5094486;28;20441;-79
2022/08/23 05:17:25;;;;;;;6.60;6.10;;;16.30;99.90;;;;;;5096605;28;20445;-79
2022/08/23 05:19:52;;;;;;;7.97;7.27;;;16.30;99.90;;;;;;5095686;28;20472;-79
2022/08/23 05:22:19;;;;;;;6.07;5.63;;;16.30;99.90;;;;;;5096518;28;20452;-79
2022/08/23 05:24:47;;;;;;;8.70;6.27;;;16.30;99.90;;;;;;5094775;28;20729;-82
2022/08/23 05:27:14;;;;;;;6.53;5.70;;;16.40;99.90;;;;;;5095603;28;20459;-80
2022/08/23 05:29:41;;;;;;;7.23;6.53;;;16.50;99.90;;;;;;5096476;28;20472;-80
2022/08/23 05:32:07;;;;;;;6.47;5.87;;;16.50;99.90;;;;;;5096579;28;20448;-80
2022/08/23 05:34:34;;;;;;;5.77;5.37;;;16.60;99.90;;;;;;5095037;28;20454;-80
2022/08/23 05:37:01;;;;;;;6.50;6.00;;;16.70;99.90;;;;;;5092002;28;20468;-81
2022/08/23 05:39:28;;;;;;;6.83;6.33;;;16.70;99.90;;;;;;5090439;28;20484;-81
2022/08/23 05:41:56;;;;;;;6.80;6.20;;;16.80;99.90;;;;;;5092110;28;20464;-82
2022/08/23 05:44:23;;;;;;;6.57;5.80;;;16.80;99.90;;;;;;5091860;28;20440;-80
2022/08/23 05:46:50;;;;;;;6.83;6.27;;;16.90;99.90;;;;;;5091696;28;20550;-83
2022/08/23 05:49:17;;;;;;;5.80;5.30;;;17.00;99.90;;;;;;5084028;28;20846;-81
2022/08/23 05:51:44;;;;;;;10.90;6.50;;;17.10;99.90;;;;;;5086914;28;20446;-80
2022/08/23 05:54:10;;;;;;;8.03;6.50;;;17.10;99.90;;;;;;5092094;28;20447;-80
2022/08/23 05:56:40;;;;;;;8.10;5.57;;;17.20;99.90;;;;;;5091834;28;20455;-82
2022/08/23 05:59:10;;;;;;;8.37;6.77;;;17.30;99.90;;;;;;5080835;28;20466;-82
2022/08/23 06:01:38;;;;;;;7.50;5.60;;;17.30;99.90;;;;;;5085984;28;20439;-80
2022/08/23 06:04:07;;;;;;;7.07;4.80;;;17.40;99.90;;;;;;5091351;28;20451;-80
2022/08/23 06:06:35;;;;;;;14.33;6.30;;;17.50;99.90;;;;;;5090676;28;20447;-81
2022/08/23 06:09:02;;;;;;;6.37;5.83;;;17.50;99.90;;;;;;5091398;28;20486;-81
2022/08/23 06:11:30;;;;;;;14.60;5.70;;;17.60;99.90;;;;;;5092400;28;20450;-80
2022/08/23 06:13:59;;;;;;;8.30;5.97;;;17.70;99.90;;;;;;5095748;28;20450;-81
2022/08/23 06:16:30;;;;;;;6.73;6.23;;;17.80;99.90;;;;;;5095730;28;20464;-80
2022/08/23 06:18:58;;;;;;;6.53;5.90;;;17.90;99.90;;;;;;5086387;28;20477;-80
2022/08/23 06:21:25;;;;;;;8.23;7.13;;;18.00;99.90;;;;;;5081398;28;20461;-81
2022/08/23 06:23:52;;;;;;;7.20;5.73;;;18.10;99.90;;;;;;5080986;28;20871;-81
2022/08/23 06:26:22;;;;;;;6.87;6.03;;;18.20;99.90;;;;;;5080647;28;20451;-81
2022/08/23 06:28:50;;;;;;;8.67;5.90;;;18.20;99.90;;;;;;5080349;28;20480;-81
2022/08/23 06:31:43;;;;;;;6.70;6.20;;;18.30;99.90;;;;;;5081251;28;20451;-85
2022/08/23 06:34:07;;;;;;;27.40;24.23;;;18.40;99.90;;;;;;5081938;28;20846;-84
2022/08/23 06:36:35;;;;;;;15.33;13.77;;;18.50;99.90;;;;;;5081599;28;20440;-82
2022/08/23 06:39:02;;;;;;;8.97;7.03;;;18.60;99.90;;;;;;5081705;28;20510;-84
2022/08/23 06:41:36;;;;;;;18.37;16.47;;;18.70;99.90;;;;;;5078610;28;20965;-88
2022/08/23 06:44:08;;;;;;;74.47;66.57;;;18.80;99.90;;;;;;5077320;28;20886;-89
2022/08/23 06:46:35;;;;;;;15.20;13.80;;;18.90;99.90;;;;;;5082140;28;20888;-83
2022/08/23 06:49:04;;;;;;;11.67;6.87;;;18.90;99.90;;;;;;5083766;28;20459;-82
2022/08/23 06:51:34;;;;;;;8.10;7.00;;;19.10;99.90;;;;;;5081662;28;20512;-81
2022/08/23 06:54:04;;;;;;;43.83;39.43;;;19.20;99.90;;;;;;5082484;28;20435;-83
2022/08/23 06:56:31;;;;;;;23.73;20.97;;;19.20;99.90;;;;;;5082270;28;20474;-81
2022/08/23 06:58:59;;;;;;;9.50;8.60;;;19.30;99.90;;;;;;5081313;28;20549;-81
2022/08/23 07:01:31;;;;;;;8.50;7.80;;;19.50;99.90;;;;;;5082482;28;20492;-81
2022/08/23 07:04:00;;;;;;;9.10;7.40;;;19.50;99.90;;;;;;5086650;28;20483;-81
2022/08/23 07:06:29;;;;;;;7.30;6.03;;;19.70;99.90;;;;;;5081745;28;20461;-81
2022/08/23 07:08:58;;;;;;;7.23;6.10;;;19.70;99.90;;;;;;5081705;28;20537;-81
2022/08/23 07:11:25;;;;;;;8.23;5.67;;;19.80;99.90;;;;;;5083679;28;20545;-81
2022/08/23 07:13:53;;;;;;;7.47;6.80;;;19.90;99.90;;;;;;5088287;28;20448;-83
2022/08/23 07:16:20;;;;;;;13.07;11.83;;;20.00;99.90;;;;;;5088547;28;20459;-83
2022/08/23 07:18:48;;;;;;;29.97;27.13;;;20.10;99.90;;;;;;5081925;28;20474;-82
2022/08/23 07:21:15;;;;;;;8.20;7.43;;;20.20;99.90;;;;;;5081899;28;20980;-82
2022/08/23 07:23:43;;;;;;;10.03;6.97;;;20.20;99.90;;;;;;5083937;28;20458;-82
2022/08/23 07:26:14;;;;;;;7.67;5.90;;;20.40;99.90;;;;;;5083933;28;20455;-82
2022/08/23 07:28:41;;;;;;;13.03;6.37;;;20.50;99.90;;;;;;5081848;28;20566;-84
2022/08/23 07:31:11;;;;;;;15.53;14.13;;;20.60;99.90;;;;;;5085843;28;20856;-84
2022/08/23 07:33:39;;;;;;;36.50;32.83;;;20.70;99.90;;;;;;5088984;28;20464;-84
2022/08/23 07:36:06;;;;;;;9.00;8.10;;;20.70;99.80;;;;;;5089175;28;20449;-84
2022/08/23 07:38:34;;;;;;;7.40;6.80;;;20.80;99.40;;;;;;5086116;28;20472;-84
2022/08/23 07:41:02;;;;;;;8.83;7.47;;;20.90;99.00;;;;;;5084758;28;20440;-84
2022/08/23 07:43:31;;;;;;;15.57;14.23;;;21.00;99.00;;;;;;5091390;28;20545;-84
2022/08/23 07:45:58;;;;;;;7.23;6.63;;;21.10;98.90;;;;;;5082526;28;20451;-81
2022/08/23 07:48:25;;;;;;;8.60;5.97;;;21.30;97.20;;;;;;5081579;28;20476;-82
2022/08/23 07:50:53;;;;;;;5.30;4.90;;;21.40;97.30;;;;;;5081909;28;20497;-82
2022/08/23 07:53:20;;;;;;;8.13;5.57;;;21.50;96.80;;;;;;5083388;28;20454;-82
2022/08/23 07:55:47;;;;;;;8.50;5.70;;;21.70;96.70;;;;;;5082001;28;20447;-82
2022/08/23 07:58:14;;;;;;;5.03;4.63;;;21.80;96.40;;;;;;5082323;28;20479;-81
2022/08/23 08:00:42;;;;;;;8.97;5.37;;;21.90;96.80;;;;;;5086871;28;20513;-86
2022/08/23 08:03:10;;;;;;;4.83;4.37;;;22.00;96.00;;;;;;5084904;28;20458;-84
2022/08/23 08:05:37;;;;;;;6.07;4.30;;;22.10;95.90;;;;;;5086752;28;20464;-84
2022/08/23 08:08:04;;;;;;;5.13;4.40;;;22.20;95.00;;;;;;5085704;28;20466;-85
2022/08/23 08:10:31;;;;;;;5.77;5.27;;;22.30;94.80;;;;;;5085664;28;21073;-85
2022/08/23 08:12:58;;;;;;;4.57;4.20;;;22.40;95.40;;;;;;5086448;28;20457;-83
2022/08/23 08:15:25;;;;;;;5.03;4.60;;;22.50;94.50;;;;;;5086074;28;20443;-84
2022/08/23 08:17:53;;;;;;;6.33;5.17;;;22.60;94.90;;;;;;5086458;28;20515;-85
2022/08/23 08:20:21;;;;;;;5.30;4.20;;;22.70;94.40;;;;;;5085154;28;20448;-82
2022/08/23 08:22:49;;;;;;;39.70;36.07;;;22.80;93.90;;;;;;5080788;28;20474;-82
2022/08/23 08:25:16;;;;;;;22.23;20.13;;;22.90;94.30;;;;;;5082758;28;20461;-85
2022/08/23 08:27:43;;;;;;;10.90;5.97;;;23.00;93.60;;;;;;5085416;28;20490;-84
2022/08/23 08:30:12;;;;;;;4.97;4.47;;;23.10;92.70;;;;;;5085933;28;20505;-84
2022/08/23 08:32:39;;;;;;;4.57;4.17;;;23.20;92.80;;;;;;5085862;28;20875;-84
2022/08/23 08:35:09;;;;;;;3.80;3.50;;;23.40;91.00;;;;;;5086269;28;20454;-84
2022/08/23 08:37:37;;;;;;;3.87;3.57;;;23.50;85.40;;;;;;5081184;28;20996;-82
2022/08/23 08:40:05;;;;;;;3.80;3.60;;;23.50;83.00;;;;;;5081083;28;20542;-82
2022/08/23 08:42:46;;;;;;;3.40;3.10;;;23.40;80.00;;;;;;5081404;28;20459;-84
2022/08/23 08:45:19;;;;;;;3.43;2.93;;;23.60;79.60;;;;;;5081327;28;20443;-81
2022/08/23 08:47:49;;;;;;;3.80;3.33;;;23.60;79.30;;;;;;5080649;28;20443;-84
2022/08/23 08:50:22;;;;;;;21.33;19.43;;;23.70;80.40;;;;;;5082209;28;20479;-83
2022/08/23 08:52:54;;;;;;;11.70;10.60;;;23.70;78.80;;;;;;5084015;28;20458;-84
2022/08/23 08:55:24;;;;;;;4.90;4.60;;;23.80;79.50;;;;;;5086917;28;20435;-81
2022/08/23 08:57:53;;;;;;;24.20;22.03;;;24.00;77.10;;;;;;5083864;28;20932;-84
2022/08/23 09:00:23;;;;;;;31.50;28.23;;;24.10;77.90;;;;;;5084851;28;20546;-83
2022/08/23 09:02:50;;;;;;;7.37;6.77;;;24.20;76.50;;;;;;5083810;28;20446;-83
2022/08/23 09:05:23;;;;;;;6.60;6.10;;;24.20;76.30;;;;;;5084286;28;20508;-83
2022/08/23 09:08:03;;;;;;;5.20;4.70;;;24.40;76.70;;;;;;5083228;28;20890;-82
2022/08/23 09:10:57;;;;;;;8.73;7.93;;;24.50;78.80;;;;;;5083763;28;20486;-83
2022/08/23 09:13:44;;;;;;;27.47;25.40;;;24.60;81.40;;;;;;5084072;28;20511;-84
2022/08/23 09:16:22;;;;;;;8.03;7.10;;;24.70;80.10;;;;;;5084223;28;20448;-83
2022/08/23 09:18:49;;;;;;;4.77;4.47;;;24.90;77.10;;;;;;5083536;28;20472;-84
2022/08/23 09:21:17;;;;;;;3.00;2.90;;;25.00;74.40;;;;;;5086624;28;20448;-84
2022/08/23 09:23:46;;;;;;;4.83;4.40;;;25.00;77.50;;;;;;5089306;28;20456;-86
2022/08/23 09:26:20;;;;;;;11.97;11.07;;;25.10;76.70;;;;;;5085686;28;20466;-82
2022/08/23 09:28:50;;;;;;;5.17;4.03;;;25.10;75.10;;;;;;5091591;28;20510;-83
2022/08/23 09:31:36;;;;;;;6.47;6.07;;;25.20;72.20;;;;;;5086375;28;20491;-82
2022/08/23 09:34:03;;;;;;;3.80;3.50;;;25.30;73.70;;;;;;5083146;28;20453;-83
2022/08/23 09:36:34;;;;;;;3.00;2.80;;;25.40;72.30;;;;;;5083539;28;20991;-85
2022/08/23 09:39:05;;;;;;;3.00;2.80;;;25.50;71.40;;;;;;5092949;28;20861;-85
2022/08/23 09:41:36;;;;;;;3.27;3.00;;;25.60;66.60;;;;;;5099154;28;20445;-85
2022/08/23 09:44:03;;;;;;;13.77;12.67;;;25.70;70.00;;;;;;5086630;28;20485;-83
2022/08/23 09:46:34;;;;;;;10.40;9.60;;;25.80;70.90;;;;;;5083587;28;20450;-84
2022/08/23 09:49:22;;;;;;;16.70;15.50;;;25.80;67.30;;;;;;5083382;28;20487;-84
2022/08/23 09:51:51;;;;;;;4.37;4.07;;;25.70;64.80;;;;;;5084046;28;20497;-83
2022/08/23 09:54:20;;;;;;;4.00;3.70;;;25.80;65.50;;;;;;5084991;28;20447;-86
2022/08/23 09:56:53;;;;;;;3.03;2.87;;;25.90;67.10;;;;;;5090706;28;20452;-85
2022/08/23 09:59:32;;;;;;;3.37;2.87;;;26.10;64.20;;;;;;5090202;28;20477;-86
2022/08/23 10:02:00;;;;;;;4.63;2.97;;;26.10;62.70;;;;;;5089127;28;20480;-87
2022/08/23 10:04:39;;;;;;;3.40;2.90;;;26.30;63.40;;;;;;5088821;28;20459;-87
2022/08/23 10:07:23;;;;;;;3.63;3.30;;;26.40;65.30;;;;;;5086179;28;20450;-86
2022/08/23 10:09:50;;;;;;;3.13;2.93;;;26.60;64.50;;;;;;5083611;28;20553;-84
2022/08/23 10:12:23;;;;;;;4.53;2.87;;;26.70;64.90;;;;;;5083089;28;20488;-81
2022/08/23 10:14:50;;;;;;;3.20;3.00;;;26.80;62.20;;;;;;5082862;28;21021;-84
2022/08/23 10:17:32;;;;;;;3.13;2.93;;;26.90;58.80;;;;;;5083677;28;20455;-85
2022/08/23 10:20:12;;;;;;;3.73;2.70;;;26.80;58.60;;;;;;5081756;28;20501;-82
2022/08/23 10:22:45;;;;;;;5.27;3.50;;;27.00;59.80;;;;;;5082972;28;20455;-84
2022/08/23 10:25:19;;;;;;;3.37;3.07;;;27.20;61.50;;;;;;5082697;28;20455;-85
2022/08/23 10:30:44;;;;;;;19.80;18.10;;;27.50;57.20;;;;;;5082678;28;20484;-83
2022/08/23 10:33:16;;;;;;;29.10;26.40;;;27.50;55.30;;;;;;5082607;28;20452;-83
2022/08/23 10:35:49;;;;;;;3.07;2.87;;;27.60;55.60;;;;;;5091302;28;20434;-81
2022/08/23 10:38:38;;;;;;;5.77;3.37;;;27.70;54.70;;;;;;5081673;28;20475;-84
2022/08/23 10:41:17;;;;;;;21.57;19.80;;;27.80;55.80;;;;;;5082288;28;20447;-83
2022/08/23 10:43:51;;;;;;;17.83;16.30;;;28.00;55.60;;;;;;5080633;28;20456;-84
2022/08/23 10:46:21;;;;;;;3.23;2.93;;;28.10;54.30;;;;;;5082361;28;20472;-82
2022/08/23 10:48:52;;;;;;;6.13;5.63;;;28.30;52.80;;;;;;5082215;28;20465;-84
2022/08/23 10:51:23;;;;;;;5.07;3.63;;;28.50;54.90;;;;;;5086044;28;20486;-82
2022/08/23 10:53:59;;;;;;;4.10;3.70;;;28.70;53.00;;;;;;5082963;28;20439;-84
2022/08/23 10:56:27;;;;;;;7.97;7.13;;;28.80;52.50;;;;;;5082457;28;20959;-85
2022/08/23 10:58:57;;;;;;;8.60;8.03;;;29.00;52.80;;;;;;5082086;28;20476;-83
2022/08/23 11:01:28;;;;;;;16.53;15.33;;;29.30;53.60;;;;;;5081917;28;20444;-83
2022/08/23 11:04:04;;;;;;;2.87;2.67;;;29.60;51.10;;;;;;5081508;28;20452;-85
2022/08/23 11:06:50;;;;;;;4.90;4.40;;;29.80;46.80;;;;;;5082445;28;20794;-83
2022/08/23 11:09:52;;;;;;;5.47;5.13;;;30.40;47.90;;;;;;5086822;28;20467;-86
2022/08/23 11:12:23;;;;;;;3.80;3.50;;;31.10;49.80;;;;;;5069980;28;20450;-84
2022/08/23 11:15:03;;;;;;;4.27;3.90;;;31.80;47.20;;;;;;5083513;28;20211;-83
2022/08/23 11:17:38;;;;;;;3.80;3.30;;;32.40;45.40;;;;;;5081627;28;20461;-85
2022/08/23 11:20:08;;;;;;;4.20;4.00;;;33.00;45.20;;;;;;5077166;28;20445;-85
2022/08/23 11:23:11;;;;;;;3.67;3.37;;;33.70;44.20;;;;;;5081381;28;20478;-84
2022/08/23 11:25:42;;;;;;;7.93;7.40;;;34.00;38.60;;;;;;5081681;28;20474;-83
2022/08/23 11:28:38;;;;;;;3.37;3.10;;;34.10;38.30;;;;;;5088759;28;20467;-86
2022/08/23 11:31:21;;;;;;;4.43;3.40;;;34.40;39.50;;;;;;5074897;28;20484;-84
2022/08/23 11:33:52;;;;;;;2.97;2.77;;;34.80;39.80;;;;;;5084781;28;20458;-84
2022/08/23 11:36:22;;;;;;;3.33;2.97;;;35.20;38.70;;;;;;5087361;28;20431;-85
2022/08/23 11:39:09;;;;;;;2.70;2.50;;;35.50;36.30;;;;;;5086580;28;20680;-85
2022/08/23 11:42:02;;;;;;;3.00;2.80;;;35.90;37.50;;;;;;5087903;28;20439;-85
2022/08/23 11:44:36;;;;;;;3.43;3.20;;;36.20;34.30;;;;;;5088402;28;20443;-86
2022/08/23 11:47:06;;;;;;;3.70;3.40;;;36.30;34.90;;;;;;5087582;28;20447;-85
2022/08/23 11:50:16;;;;;;;3.87;3.67;;;36.30;32.90;;;;;;5087270;28;20465;-85
2022/08/23 11:53:19;;;;;;;2.40;2.30;;;36.10;34.50;;;;;;5089014;28;20486;-85
2022/08/23 11:56:02;;;;;;;3.00;2.83;;;36.10;34.50;;;;;;5031672;28;20449;-85
2022/08/23 11:58:43;;;;;;;3.03;2.80;;;36.30;34.10;;;;;;5091463;28;20999;-85
2022/08/23 12:01:12;;;;;;;2.50;2.40;;;36.40;34.40;;;;;;5087926;28;20453;-85
2022/08/23 12:03:55;;;;;;;2.77;2.57;;;36.80;34.50;;;;;;5086939;28;20956;-85
2022/08/23 12:06:42;;;;;;;8.13;7.63;;;37.00;33.00;;;;;;5087151;28;20431;-81
2022/08/23 12:09:50;;;;;;;4.97;4.57;;;37.30;32.50;;;;;;5093452;28;20477;-81
2022/08/23 12:12:36;;;;;;;2.50;2.37;;;37.60;31.80;;;;;;5096226;28;20446;-84
2022/08/23 12:15:09;;;;;;;3.10;2.87;;;37.80;30.20;;;;;;5097375;28;20434;-84
2022/08/23 12:18:13;;;;;;;2.60;2.40;;;37.90;31.60;;;;;;5097006;28;20443;-85
2022/08/23 12:20:41;;;;;;;3.17;2.70;;;37.70;31.20;;;;;;5095208;28;20452;-84
2022/08/23 12:23:15;;;;;;;3.27;2.70;;;37.90;30.80;;;;;;5097392;28;20450;-85
2022/08/23 12:25:42;;;;;;;2.03;1.93;;;38.20;30.20;;;;;;5096859;28;20447;-85
2022/08/23 12:28:28;;;;;;;3.60;3.30;;;38.50;29.60;;;;;;5096571;28;20489;-85
2022/08/23 12:31:02;;;;;;;4.47;2.90;;;38.90;29.90;;;;;;5096759;28;20490;-84
2022/08/23 12:33:40;;;;;;;3.60;2.70;;;38.30;29.70;;;;;;5097335;28;20438;-84
2022/08/23 12:36:15;;;;;;;2.57;2.40;;;38.10;30.70;;;;;;5095765;28;20439;-83
2022/08/23 12:38:52;;;;;;;4.40;4.10;;;38.40;31.20;;;;;;5094449;28;20465;-84
2022/08/23 12:41:21;;;;;;;3.60;3.30;;;38.80;29.80;;;;;;5095433;28;20848;-84
2022/08/23 12:43:58;;;;;;;3.10;2.90;;;39.00;29.50;;;;;;5095600;28;20450;-84
2022/08/23 12:46:39;;;;;;;3.57;3.20;;;39.30;28.80;;;;;;5097161;28;20483;-85
2022/08/23 12:49:08;;;;;;;3.70;2.70;;;38.20;28.90;;;;;;5096478;28;20474;-84
2022/08/23 12:51:41;;;;;;;2.93;2.73;;;38.30;29.60;;;;;;5096665;28;20430;-85
2022/08/23 12:54:17;;;;;;;3.13;2.83;;;38.30;30.00;;;;;;5095973;28;20435;-84
2022/08/23 12:56:47;;;;;;;3.37;3.07;;;38.70;30.70;;;;;;5096867;28;20434;-85
2022/08/23 12:59:30;;;;;;;3.07;2.80;;;39.20;29.90;;;;;;5089004;28;20463;-85
2022/08/23 13:01:59;;;;;;;3.40;2.90;;;39.80;28.10;;;;;;5086158;28;20479;-85
2022/08/23 13:04:26;;;;;;;3.33;3.00;;;40.30;29.10;;;;;;5084880;28;20482;-85
2022/08/23 13:06:57;;;;;;;4.97;2.60;;;40.70;28.10;;;;;;5083627;28;20455;-86
2022/08/23 13:09:29;;;;;;;2.80;2.57;;;40.00;28.10;;;;;;5086013;28;20483;-86
2022/08/23 13:11:57;;;;;;;2.90;2.53;;;40.20;28.20;;;;;;5082910;28;20427;-84
2022/08/23 13:14:26;;;;;;;2.63;2.53;;;40.40;29.10;;;;;;5092804;28;20459;-85
2022/08/23 13:16:54;;;;;;;2.67;2.57;;;40.40;27.80;;;;;;5085877;28;20451;-85
2022/08/23 13:19:27;;;;;;;2.70;2.50;;;40.10;27.40;;;;;;5085758;28;20478;-84